Newcastle, Canada
Current Conditions -  °F | °C
As of 11:00 PM on Tuesday 21 Oct 2014 (Local Time) from CZBF Reporting Station
Broken Clouds Broken Clouds  
Wind Chill: 39°   Ceiling: 6000
Heat Index: 39°   Visibility: 15mi
Dew Point: 32°   Wind: 2mph
Humidity: 75%   Direction: NA
Pressure: 30.3"   Gusts: NA
Location:  46.98°N, 65.57°W
Report Text: CZBF 220200Z VRB02KT 15SM BKN060 04/M00 A3030 RMK SC5 SLP261
Loading
Personal Weather Stations






























Interactive Weather Map
Tropical Storm Tracking
New forecast layout! Learn more

10-Day Weather Forecast

Advertisements
Track Severe Weather on mobile